createdAt,value
2022-12-25T00:01:45.328Z,86.39
2022-12-25T00:04:14.896Z,87.23
2022-12-25T00:06:44.216Z,86.84
2022-12-25T00:09:13.807Z,86.36
2022-12-25T00:11:44.547Z,86.26
2022-12-25T00:14:14.618Z,85.90
2022-12-25T00:16:45.010Z,86.26
2022-12-25T00:19:14.536Z,86.12
2022-12-25T00:21:43.476Z,86.28
2022-12-25T00:24:12.726Z,85.74
2022-12-25T00:26:42.982Z,86.01
2022-12-25T00:29:14.912Z,86.18
2022-12-25T00:31:43.922Z,86.11
2022-12-25T00:34:13.259Z,86.42
2022-12-25T00:36:42.494Z,86.93
2022-12-25T00:39:12.327Z,86.51
2022-12-25T00:41:58.516Z,85.72
2022-12-25T00:44:29.186Z,85.76
2022-12-25T00:46:58.041Z,86.07
2022-12-25T00:49:28.408Z,86.29
2022-12-25T00:51:57.489Z,85.79
2022-12-25T00:54:26.848Z,86.46
2022-12-25T00:56:55.931Z,85.89
2022-12-25T00:59:25.147Z,86.33
2022-12-25T01:01:55.459Z,85.59
2022-12-25T01:04:24.918Z,86.37
2022-12-25T01:06:53.810Z,86.51
2022-12-25T01:09:40.871Z,86.11
2022-12-25T01:12:10.002Z,86.15
2022-12-25T01:14:39.439Z,85.51
2022-12-25T01:17:10.370Z,85.91
2022-12-25T01:19:39.949Z,85.65
2022-12-25T01:22:09.196Z,86.03
2022-12-25T01:24:38.621Z,86.17
2022-12-25T01:27:07.512Z,86.02
2022-12-25T01:29:36.852Z,86.18
2022-12-25T01:32:07.128Z,86.33
2022-12-25T01:34:38.400Z,86.34
2022-12-25T01:37:07.754Z,86.47
2022-12-25T01:39:37.010Z,86.39
2022-12-25T01:42:06.196Z,86.01
2022-12-25T01:45:27.793Z,86.01
2022-12-25T01:47:56.854Z,86.40
2022-12-25T01:50:28.826Z,86.26
2022-12-25T01:52:58.889Z,85.78
2022-12-25T01:55:28.504Z,85.79
2022-12-25T01:57:58.010Z,86.52
2022-12-25T02:00:27.254Z,86.58
2022-12-25T02:02:57.055Z,86.34
2022-12-25T02:05:30.698Z,85.61
2022-12-25T02:08:03.020Z,85.72
2022-12-25T02:10:32.359Z,86.00
2022-12-25T02:13:02.189Z,86.44
2022-12-25T02:15:41.435Z,86.30
2022-12-25T02:18:15.306Z,85.55
2022-12-25T02:21:01.668Z,86.13
2022-12-25T02:23:53.574Z,86.58
2022-12-25T02:26:42.600Z,86.03
2022-12-25T02:29:22.716Z,85.92
2022-12-25T02:31:56.231Z,86.15
2022-12-25T02:34:35.639Z,86.04
2022-12-25T02:37:13.152Z,86.51
2022-12-25T02:40:01.042Z,86.18
2022-12-25T02:42:57.671Z,85.80
2022-12-25T02:45:50.859Z,85.42
2022-12-25T02:48:41.716Z,85.80
2022-12-25T02:51:28.721Z,86.18
2022-12-25T02:54:18.820Z,85.90
2022-12-25T02:57:07.885Z,86.53
2022-12-25T02:59:59.056Z,86.63
2022-12-25T03:02:48.319Z,86.30
2022-12-25T03:05:41.043Z,85.98
2022-12-25T03:08:14.902Z,86.08
2022-12-25T03:11:08.715Z,86.45
2022-12-25T03:13:40.928Z,86.25
2022-12-25T03:16:29.654Z,86.00
2022-12-25T03:19:00.920Z,86.01
2022-12-25T03:21:48.127Z,86.37
2022-12-25T03:24:34.580Z,86.55
2022-12-25T03:27:03.963Z,85.88
2022-12-25T03:30:00.737Z,86.01
2022-12-25T03:32:37.734Z,86.08
2022-12-25T03:35:24.425Z,86.07
2022-12-25T03:38:28.802Z,85.64
2022-12-25T03:41:19.338Z,85.98
2022-12-25T03:44:13.482Z,85.78
2022-12-25T03:47:21.712Z,85.37
2022-12-25T03:50:13.207Z,86.07
2022-12-25T03:53:02.719Z,86.15
2022-12-25T03:55:56.461Z,86.35
2022-12-25T03:58:45.503Z,86.87
2022-12-25T04:01:32.538Z,85.54
2022-12-25T04:04:19.070Z,85.96
2022-12-25T04:07:05.645Z,85.63
2022-12-25T04:09:53.520Z,85.74
2022-12-25T04:12:40.215Z,85.82
2022-12-25T04:15:27.889Z,86.13
2022-12-25T04:18:14.555Z,86.36
2022-12-25T04:21:00.987Z,86.26
2022-12-25T04:24:02.071Z,86.69
2022-12-25T04:26:49.648Z,86.98
2022-12-25T04:29:36.378Z,86.09
2022-12-25T04:32:23.237Z,86.40
2022-12-25T04:35:10.174Z,86.27
2022-12-25T04:37:39.156Z,86.45
2022-12-25T04:40:10.988Z,86.73
2022-12-25T04:42:41.294Z,86.08
2022-12-25T04:45:11.752Z,86.53
2022-12-25T04:47:40.805Z,86.66
2022-12-25T04:50:10.452Z,86.10
2022-12-25T04:52:41.582Z,86.03
2022-12-25T04:55:12.087Z,85.79
2022-12-25T04:57:42.401Z,86.72
2022-12-25T05:00:12.576Z,86.80
2022-12-25T05:02:41.571Z,86.79
2022-12-25T05:05:11.154Z,86.01
2022-12-25T05:07:40.071Z,85.90
2022-12-25T05:10:10.036Z,85.67
2022-12-25T05:12:39.008Z,85.39
2022-12-25T05:15:10.631Z,86.11
2022-12-25T05:17:39.721Z,86.45
2022-12-25T05:20:09.751Z,86.17
2022-12-25T05:22:38.723Z,85.65
2022-12-25T05:25:08.765Z,85.66
2022-12-25T05:27:37.742Z,86.18
2022-12-25T05:30:07.986Z,86.03
2022-12-25T05:32:38.291Z,85.84
2022-12-25T05:35:08.942Z,85.26
2022-12-25T05:37:38.265Z,85.77
2022-12-25T05:40:08.632Z,85.36
2022-12-25T05:42:37.595Z,85.87
2022-12-25T05:45:07.891Z,85.40
2022-12-25T05:47:38.283Z,85.80
2022-12-25T05:50:09.012Z,86.02
2022-12-25T05:52:37.759Z,86.22
2022-12-25T05:55:07.716Z,85.49
2022-12-25T05:57:37.227Z,85.33
2022-12-25T06:00:07.778Z,85.30
2022-12-25T06:02:42.813Z,85.57
2022-12-25T06:05:12.370Z,85.21
2022-12-25T06:07:41.321Z,86.00
2022-12-25T06:10:11.486Z,85.45
2022-12-25T06:12:40.482Z,86.35
2022-12-25T06:15:10.720Z,86.32
2022-12-25T06:17:41.074Z,86.44
2022-12-25T06:20:11.025Z,86.42
2022-12-25T06:22:40.167Z,85.82
2022-12-25T06:25:10.219Z,85.79
2022-12-25T06:27:39.339Z,86.03
2022-12-25T06:30:10.034Z,86.28
2022-12-25T06:32:39.322Z,86.35
2022-12-25T06:35:10.651Z,86.77
2022-12-25T06:37:39.626Z,86.12
2022-12-25T06:40:09.869Z,86.24
2022-12-25T06:42:38.824Z,86.35
2022-12-25T06:45:08.885Z,86.48
2022-12-25T06:47:39.171Z,86.89
2022-12-25T06:50:10.476Z,86.24
2022-12-25T06:52:39.481Z,87.04
2022-12-25T06:55:09.502Z,86.98
2022-12-25T06:57:38.730Z,87.33
2022-12-25T07:00:09.476Z,86.56
2022-12-25T07:02:39.519Z,86.31
2022-12-25T07:05:10.726Z,87.06
2022-12-25T07:07:39.733Z,86.91
2022-12-25T07:10:10.127Z,87.15
2022-12-25T07:12:39.156Z,86.25
2022-12-25T07:15:11.084Z,87.09
2022-12-25T07:17:40.076Z,86.97
2022-12-25T07:20:11.600Z,86.57
2022-12-25T07:22:40.516Z,87.22
2022-12-25T07:25:10.320Z,87.23
2022-12-25T07:27:39.357Z,87.38
2022-12-25T07:30:09.884Z,86.93
2022-12-25T07:32:39.001Z,87.35
2022-12-25T07:35:08.903Z,86.77
2022-12-25T07:37:39.327Z,87.05
2022-12-25T07:40:10.068Z,86.82
2022-12-25T07:42:39.181Z,86.56
2022-12-25T07:45:09.162Z,86.79
2022-12-25T07:47:38.113Z,87.38
2022-12-25T07:50:08.728Z,87.57
2022-12-25T07:52:43.415Z,87.40
2022-12-25T07:55:13.120Z,87.42
2022-12-25T07:57:42.201Z,87.40
2022-12-25T08:00:12.711Z,87.04
2022-12-25T08:02:41.971Z,87.73
2022-12-25T08:05:11.482Z,87.23
2022-12-25T08:07:42.088Z,86.59
2022-12-25T08:10:11.154Z,87.40
2022-12-25T08:12:40.347Z,86.55
2022-12-25T08:15:10.240Z,86.66
2022-12-25T08:17:39.528Z,86.89
2022-12-25T08:20:09.811Z,86.40
2022-12-25T08:22:39.138Z,86.44
2022-12-25T08:25:10.521Z,86.83
2022-12-25T08:27:39.843Z,86.61
2022-12-25T08:30:10.017Z,86.64
2022-12-25T08:32:39.331Z,86.73
2022-12-25T08:35:09.113Z,86.58
2022-12-25T08:37:38.398Z,86.82
2022-12-25T08:40:09.914Z,86.40
2022-12-25T08:42:39.297Z,86.40
2022-12-25T08:45:09.579Z,86.57
2022-12-25T08:47:38.865Z,86.89
2022-12-25T08:50:09.170Z,86.95
2022-12-25T08:52:38.715Z,86.27
2022-12-25T08:55:09.838Z,86.22
2022-12-25T08:57:39.129Z,86.32
2022-12-25T09:00:09.515Z,86.95
2022-12-25T09:02:38.977Z,86.54
2022-12-25T09:05:09.530Z,86.42
2022-12-25T09:07:38.827Z,86.37
2022-12-25T09:10:10.425Z,86.11
2022-12-25T09:12:39.996Z,86.16
2022-12-25T09:15:09.487Z,86.23
2022-12-25T09:17:38.750Z,85.86
2022-12-25T09:20:09.166Z,86.74
2022-12-25T09:22:38.516Z,86.82
2022-12-25T09:25:09.775Z,86.61
2022-12-25T09:27:39.329Z,86.77
2022-12-25T09:30:09.511Z,86.71
2022-12-25T09:32:40.308Z,86.05
2022-12-25T09:35:10.256Z,86.77
2022-12-25T09:37:39.480Z,86.57
2022-12-25T09:40:15.349Z,86.57
2022-12-25T09:42:45.381Z,86.38
2022-12-25T09:45:19.305Z,86.54
2022-12-25T09:47:50.345Z,86.30
2022-12-25T09:50:24.606Z,86.36
2022-12-25T09:53:01.831Z,85.96
2022-12-25T09:55:37.103Z,86.71
2022-12-25T09:58:13.475Z,85.96
2022-12-25T10:00:46.704Z,85.95
2022-12-25T10:03:29.108Z,86.33
2022-12-25T10:06:12.029Z,86.73
2022-12-25T10:09:07.673Z,85.88
2022-12-25T10:12:02.196Z,86.48
2022-12-25T10:14:40.234Z,86.46
2022-12-25T10:17:32.003Z,86.68
2022-12-25T10:20:11.599Z,85.92
2022-12-25T10:22:45.401Z,86.54
2022-12-25T10:25:20.423Z,86.40
2022-12-25T10:27:55.280Z,86.28
2022-12-25T10:30:27.329Z,86.22
2022-12-25T10:32:58.746Z,86.62
2022-12-25T10:35:30.755Z,86.31
2022-12-25T10:38:03.158Z,86.36
2022-12-25T10:40:45.215Z,86.14
2022-12-25T10:43:22.529Z,85.69
2022-12-25T10:45:51.928Z,85.65
2022-12-25T10:48:27.604Z,86.18
2022-12-25T10:50:57.524Z,86.10
2022-12-25T10:53:28.445Z,86.15
2022-12-25T10:56:03.338Z,85.87
2022-12-25T10:58:34.720Z,86.09
2022-12-25T11:01:06.428Z,86.69
2022-12-25T11:03:37.735Z,86.51
2022-12-25T11:06:21.350Z,86.21
2022-12-25T11:08:54.724Z,85.94
2022-12-25T11:11:24.720Z,85.60
2022-12-25T11:13:58.683Z,85.80
2022-12-25T11:16:30.599Z,86.58
2022-12-25T11:19:01.034Z,86.54
2022-12-25T11:21:31.881Z,86.27
2022-12-25T11:24:02.920Z,85.83
2022-12-25T11:26:47.163Z,86.25
2022-12-25T11:29:24.703Z,85.79
2022-12-25T11:31:57.233Z,86.31
2022-12-25T11:34:32.073Z,86.18
2022-12-25T11:37:03.485Z,86.04
2022-12-25T11:39:35.437Z,86.38
2022-12-25T11:42:11.153Z,86.19
2022-12-25T11:44:52.240Z,86.04
2022-12-25T11:47:32.163Z,86.50
2022-12-25T11:50:06.076Z,86.18
2022-12-25T11:52:38.590Z,86.18
2022-12-25T11:55:18.075Z,85.94
2022-12-25T11:57:52.531Z,86.52
2022-12-25T12:00:23.158Z,85.96
2022-12-25T12:02:58.877Z,85.91
2022-12-25T12:05:35.040Z,86.43
2022-12-25T12:08:07.464Z,85.97
2022-12-25T12:10:49.877Z,86.52
2022-12-25T12:13:32.629Z,86.04
2022-12-25T12:16:04.001Z,86.13
2022-12-25T12:18:35.728Z,86.49
2022-12-25T12:21:08.467Z,86.07
2022-12-25T12:23:49.756Z,86.21
2022-12-25T12:26:22.838Z,86.46
2022-12-25T12:28:54.454Z,86.36
2022-12-25T12:31:25.470Z,86.49
2022-12-25T12:33:58.604Z,85.65
2022-12-25T12:36:36.005Z,86.62
2022-12-25T12:39:06.875Z,86.86
2022-12-25T12:41:47.191Z,86.63
2022-12-25T12:44:18.968Z,86.88
2022-12-25T12:46:57.541Z,86.52
2022-12-25T12:49:29.461Z,86.26
2022-12-25T12:52:06.880Z,86.37
2022-12-25T12:54:53.521Z,86.25
2022-12-25T12:57:32.762Z,86.11
2022-12-25T13:00:09.765Z,86.46
2022-12-25T13:03:07.009Z,86.76
2022-12-25T13:05:49.917Z,87.20
2022-12-25T13:08:44.352Z,86.39
2022-12-25T13:11:19.593Z,86.97
2022-12-25T13:13:50.443Z,86.76
2022-12-25T13:16:26.654Z,86.10
2022-12-25T13:18:58.235Z,86.57
2022-12-25T13:21:34.944Z,86.40
2022-12-25T13:24:10.709Z,86.54
2022-12-25T13:26:41.424Z,86.70
2022-12-25T13:29:25.161Z,86.47
2022-12-25T13:31:55.901Z,86.71
2022-12-25T13:34:32.279Z,87.11
2022-12-25T13:37:09.971Z,87.02
2022-12-25T13:39:49.127Z,86.36
2022-12-25T13:42:21.016Z,87.01
2022-12-25T13:44:53.426Z,86.78
2022-12-25T13:47:31.032Z,86.63
2022-12-25T13:50:20.376Z,87.10
2022-12-25T13:52:49.920Z,86.56
2022-12-25T13:55:24.412Z,86.77
2022-12-25T13:57:57.590Z,86.37
2022-12-25T14:00:34.956Z,86.58
2022-12-25T14:03:05.333Z,86.55
2022-12-25T14:05:43.385Z,86.91
2022-12-25T14:08:19.821Z,86.42
2022-12-25T14:10:52.393Z,86.35
2022-12-25T14:13:24.740Z,86.85
2022-12-25T14:15:54.547Z,86.72
2022-12-25T14:18:29.799Z,86.67
2022-12-25T14:21:04.188Z,86.44
2022-12-25T14:23:42.188Z,86.46
2022-12-25T14:26:17.386Z,87.08
2022-12-25T14:28:50.688Z,86.75
2022-12-25T14:31:21.087Z,87.02
2022-12-25T14:33:51.568Z,86.89
2022-12-25T14:36:22.290Z,86.67
2022-12-25T14:38:58.982Z,86.92
2022-12-25T14:41:38.036Z,86.50
2022-12-25T14:44:23.440Z,86.37
2022-12-25T14:46:52.589Z,86.52
2022-12-25T14:49:25.635Z,86.55
2022-12-25T14:51:56.218Z,86.46
2022-12-25T14:54:26.038Z,86.50
2022-12-25T14:56:56.416Z,86.38
2022-12-25T14:59:28.124Z,86.60
2022-12-25T15:02:01.087Z,86.62
2022-12-25T15:04:31.082Z,87.06
2022-12-25T15:07:07.286Z,86.45
2022-12-25T15:09:37.779Z,87.00
2022-12-25T15:12:07.410Z,87.00
2022-12-25T15:14:38.425Z,87.16
2022-12-25T15:17:07.412Z,87.36
2022-12-25T15:19:39.232Z,87.34
2022-12-25T15:22:13.970Z,87.12
2022-12-25T15:24:43.394Z,87.09
2022-12-25T15:27:17.170Z,87.27
2022-12-25T15:30:09.314Z,87.02
2022-12-25T15:32:35.508Z,87.83
2022-12-25T15:35:05.079Z,87.46
2022-12-25T15:37:35.458Z,87.79
2022-12-25T15:40:06.610Z,87.43
2022-12-25T15:42:36.197Z,87.70
2022-12-25T15:45:06.275Z,87.45
2022-12-25T15:47:35.194Z,87.18
2022-12-25T15:50:04.577Z,87.08
2022-12-25T15:52:34.924Z,87.13
2022-12-25T15:55:04.319Z,87.55
2022-12-25T15:57:35.157Z,87.49
2022-12-25T16:00:05.405Z,87.71
2022-12-25T16:02:40.765Z,87.18
2022-12-25T16:05:10.818Z,87.56
2022-12-25T16:07:41.666Z,87.17
2022-12-25T16:10:16.877Z,87.69
2022-12-25T16:12:46.395Z,87.69
2022-12-25T16:15:17.110Z,87.21
2022-12-25T16:17:45.806Z,87.03
2022-12-25T16:20:15.334Z,87.33
2022-12-25T16:22:45.719Z,86.74
2022-12-25T16:25:17.523Z,86.99
2022-12-25T16:27:47.072Z,87.53
2022-12-25T16:30:18.672Z,87.50
2022-12-25T16:32:50.944Z,87.53
2022-12-25T16:35:20.345Z,87.59
2022-12-25T16:37:50.746Z,87.33
2022-12-25T16:40:20.312Z,87.38
2022-12-25T16:42:49.230Z,87.46
2022-12-25T16:45:18.480Z,87.22
2022-12-25T16:47:47.425Z,87.42
2022-12-25T16:50:17.125Z,87.16
2022-12-25T16:52:46.139Z,87.39
2022-12-25T16:55:16.724Z,87.15
2022-12-25T16:57:51.237Z,87.23
2022-12-25T17:00:21.768Z,87.19
2022-12-25T17:02:50.953Z,87.51
2022-12-25T17:05:20.418Z,87.88
2022-12-25T17:07:49.596Z,87.44
2022-12-25T17:10:21.457Z,87.62
2022-12-25T17:12:50.682Z,87.30
2022-12-25T17:15:20.120Z,87.25
2022-12-25T17:17:49.104Z,87.45
2022-12-25T17:20:18.493Z,87.70
2022-12-25T17:22:50.905Z,87.57
2022-12-25T17:25:21.560Z,87.54
2022-12-25T17:27:50.617Z,87.64
2022-12-25T17:30:19.856Z,87.85
2022-12-25T17:32:48.801Z,87.26
2022-12-25T17:35:20.788Z,87.70
2022-12-25T17:37:49.763Z,88.18
2022-12-25T17:40:20.550Z,87.41
2022-12-25T17:42:52.774Z,87.67
2022-12-25T17:45:22.144Z,87.69
2022-12-25T17:47:54.930Z,88.00
2022-12-25T17:50:25.585Z,87.95
2022-12-25T17:52:54.621Z,87.99
2022-12-25T17:55:25.162Z,88.02
2022-12-25T17:57:54.137Z,87.56
2022-12-25T18:00:23.559Z,87.90
2022-12-25T18:02:52.797Z,87.28
2022-12-25T18:05:22.359Z,87.66
2022-12-25T18:07:51.343Z,87.75
2022-12-25T18:10:20.893Z,88.10
2022-12-25T18:12:51.191Z,87.79
2022-12-25T18:15:20.551Z,87.97
2022-12-25T18:17:49.413Z,87.97
2022-12-25T18:20:18.849Z,87.76
2022-12-25T18:22:47.812Z,87.97
2022-12-25T18:25:17.075Z,88.01
2022-12-25T18:27:46.001Z,87.92
2022-12-25T18:30:16.986Z,87.80
2022-12-25T18:32:46.039Z,88.30
2022-12-25T18:35:15.413Z,88.31
2022-12-25T18:37:44.394Z,88.19
2022-12-25T18:40:14.035Z,87.89
2022-12-25T18:42:43.405Z,88.39
2022-12-25T18:45:15.873Z,88.61
2022-12-25T18:47:47.009Z,88.06
2022-12-25T18:50:16.804Z,88.05
2022-12-25T18:52:47.613Z,88.18
2022-12-25T18:55:20.257Z,88.35
2022-12-25T18:57:49.544Z,87.96
2022-12-25T19:00:22.274Z,87.86
2022-12-25T19:02:51.935Z,88.00
2022-12-25T19:05:21.525Z,87.67
2022-12-25T19:07:50.457Z,87.99
2022-12-25T19:10:19.871Z,87.75
2022-12-25T19:12:48.862Z,87.71
2022-12-25T19:15:19.429Z,87.93
2022-12-25T19:17:48.168Z,87.71
2022-12-25T19:20:17.812Z,88.20
2022-12-25T19:22:46.738Z,88.13
2022-12-25T19:25:16.104Z,87.69
2022-12-25T19:27:45.238Z,87.75
2022-12-25T19:30:14.924Z,87.83
2022-12-25T19:32:45.191Z,87.64
2022-12-25T19:35:14.507Z,87.93
2022-12-25T19:37:43.435Z,88.01
2022-12-25T19:40:13.911Z,87.87
2022-12-25T19:42:42.867Z,88.13
2022-12-25T19:45:12.907Z,88.01
2022-12-25T19:47:44.350Z,87.65
2022-12-25T19:50:15.107Z,87.89
2022-12-25T19:52:45.502Z,87.95
2022-12-25T19:55:14.823Z,88.11
2022-12-25T19:57:43.696Z,88.03
2022-12-25T20:00:13.616Z,87.90
2022-12-25T20:02:42.654Z,88.15
2022-12-25T20:05:11.993Z,88.18
2022-12-25T20:07:42.357Z,88.04
2022-12-25T20:10:11.914Z,88.04
2022-12-25T20:12:40.762Z,87.84
2022-12-25T20:15:11.097Z,88.06
2022-12-25T20:17:40.052Z,87.87
2022-12-25T20:20:09.954Z,87.55
2022-12-25T20:22:41.314Z,88.00
2022-12-25T20:25:11.426Z,87.69
2022-12-25T20:27:40.472Z,87.92
2022-12-25T20:30:10.573Z,88.13
2022-12-25T20:32:43.661Z,88.25
2022-12-25T20:35:16.597Z,88.35
2022-12-25T20:37:46.961Z,88.03
2022-12-25T20:40:16.595Z,88.02
2022-12-25T20:42:45.480Z,88.46
2022-12-25T20:45:14.715Z,88.46
2022-12-25T20:47:43.648Z,88.36
2022-12-25T20:50:12.876Z,88.48
2022-12-25T20:52:41.804Z,88.64
2022-12-25T20:55:14.034Z,88.49
2022-12-25T20:57:43.621Z,88.27
2022-12-25T21:00:14.339Z,88.14
2022-12-25T21:02:43.785Z,88.17
2022-12-25T21:05:13.135Z,88.50
2022-12-25T21:07:42.080Z,88.17
2022-12-25T21:10:12.741Z,88.45
2022-12-25T21:12:41.528Z,88.58
2022-12-25T21:15:15.422Z,88.70
2022-12-25T21:17:44.891Z,88.21
2022-12-25T21:20:14.093Z,88.09
2022-12-25T21:22:43.242Z,88.05
2022-12-25T21:25:13.850Z,88.44
2022-12-25T21:27:42.672Z,88.65
2022-12-25T21:30:15.503Z,88.39
2022-12-25T21:33:02.491Z,88.41
2022-12-25T21:35:33.102Z,88.57
2022-12-25T21:38:02.433Z,88.53
2022-12-25T21:40:36.031Z,88.45
2022-12-25T21:43:05.692Z,88.46
2022-12-25T21:45:35.722Z,88.76
2022-12-25T21:48:05.254Z,88.56
2022-12-25T21:51:19.834Z,88.60
2022-12-25T21:53:49.274Z,88.21
2022-12-25T21:56:20.169Z,88.32
2022-12-25T21:58:51.539Z,88.70
2022-12-25T22:01:22.213Z,88.07
2022-12-25T22:03:52.788Z,88.64
2022-12-25T22:06:39.536Z,88.59
2022-12-25T22:09:09.551Z,88.15
2022-12-25T22:11:57.738Z,88.22
2022-12-25T22:14:51.144Z,88.18
2022-12-25T22:17:41.654Z,88.17
2022-12-25T22:20:13.149Z,88.21
2022-12-25T22:22:42.588Z,88.21
2022-12-25T22:25:12.063Z,88.25
2022-12-25T22:27:44.517Z,88.54
2022-12-25T22:30:15.893Z,88.63
2022-12-25T22:32:46.368Z,88.12
2022-12-25T22:35:16.935Z,88.58
2022-12-25T22:37:48.268Z,88.40
2022-12-25T22:40:17.775Z,88.51
2022-12-25T22:42:48.455Z,88.33
2022-12-25T22:45:18.095Z,88.47
2022-12-25T22:47:48.191Z,88.37
2022-12-25T22:50:18.020Z,88.26
2022-12-25T22:52:47.319Z,88.08
2022-12-25T22:55:19.214Z,88.63
2022-12-25T22:57:50.399Z,88.41
2022-12-25T23:00:19.572Z,88.24
2022-12-25T23:02:48.978Z,88.00
2022-12-25T23:05:18.980Z,88.48
2022-12-25T23:07:48.231Z,88.07
2022-12-25T23:10:17.122Z,88.07
2022-12-25T23:13:03.659Z,88.23
2022-12-25T23:15:34.101Z,88.37
2022-12-25T23:18:20.625Z,88.22
2022-12-25T23:21:08.240Z,88.39
2022-12-25T23:23:54.633Z,88.10
2022-12-25T23:26:23.987Z,88.16
2022-12-25T23:29:10.841Z,88.29
2022-12-25T23:31:43.573Z,88.09
2022-12-25T23:34:13.396Z,88.42
2022-12-25T23:36:42.302Z,88.02
2022-12-25T23:39:11.686Z,88.17
2022-12-25T23:41:41.497Z,88.30
2022-12-25T23:44:11.437Z,88.50
2022-12-25T23:46:52.738Z,88.83
2022-12-25T23:49:23.402Z,88.60
2022-12-25T23:51:52.525Z,88.18
2022-12-25T23:54:23.954Z,88.31
2022-12-25T23:56:53.302Z,88.36
2022-12-25T23:59:22.752Z,88.30
